Time;durP1;ratioP1;P1;durP2;ratioP2;P2;SDS_P1;SDS_P2;PMS_P1;PMS_P2;Temp;Humidity;BMP_temperature;BMP_pressure;BME280_temperature;BME280_humidity;BME280_pressure;Samples;Min_cycle;Max_cycle;Signal;HPM_P1;HPM_P2
2023/03/27 00:02:12;;;;;;;4.97;1.50;;;6.90;58.40;;;9.59;43.30;101010.69;5035118;28;20465;-61
2023/03/27 00:04:40;;;;;;;4.93;1.53;;;6.80;58.50;;;9.59;43.13;101015.94;5037014;28;20241;-61
2023/03/27 00:07:08;;;;;;;5.40;1.87;;;6.80;58.70;;;9.57;43.23;101023.16;5046894;28;20665;-61
2023/03/27 00:09:36;;;;;;;5.93;1.73;;;6.80;58.80;;;9.55;42.99;101023.34;5037416;28;20680;-60
2023/03/27 00:12:05;;;;;;;4.43;2.07;;;6.70;58.70;;;9.50;43.08;101018.56;5034393;28;20198;-61
2023/03/27 00:14:32;;;;;;;5.23;1.50;;;6.70;58.70;;;9.46;43.32;101022.47;5053475;28;20232;-60
2023/03/27 00:16:59;;;;;;;5.37;1.83;;;6.70;58.80;;;9.44;43.55;101027.09;5054194;28;20196;-59
2023/03/27 00:19:26;;;;;;;4.27;1.50;;;6.70;59.00;;;9.43;43.74;101022.00;5045427;28;20578;-61
2023/03/27 00:21:53;;;;;;;5.17;1.33;;;6.60;59.30;;;9.43;43.40;101020.19;5034147;28;20198;-61
2023/03/27 00:24:21;;;;;;;5.07;2.00;;;6.60;59.30;;;9.42;43.70;101026.41;5047719;28;20627;-59
2023/03/27 00:26:47;;;;;;;5.90;1.67;;;6.60;59.40;;;9.40;43.57;101023.13;5033855;28;20194;-60
2023/03/27 00:29:16;;;;;;;11.43;2.40;;;6.60;59.50;;;9.38;43.83;101025.09;5033843;28;20218;-60
2023/03/27 00:31:43;;;;;;;4.87;1.73;;;6.60;59.70;;;9.36;43.64;101027.06;5033625;28;20196;-58
2023/03/27 00:34:10;;;;;;;5.80;1.50;;;6.60;59.70;;;9.35;44.04;101035.91;5044602;28;20217;-62
2023/03/27 00:36:37;;;;;;;7.50;2.03;;;6.50;59.80;;;9.33;44.12;101037.88;5033663;28;20187;-60
2023/03/27 00:39:05;;;;;;;5.20;2.07;;;6.50;59.90;;;9.32;43.87;101038.84;5033845;28;20190;-60
2023/03/27 00:41:32;;;;;;;5.73;1.50;;;6.50;59.90;;;9.32;44.19;101046.75;5033872;28;20190;-60
2023/03/27 00:43:59;;;;;;;4.93;1.87;;;6.50;60.40;;;9.34;44.01;101044.78;5047373;28;20216;-60
2023/03/27 00:46:40;;;;;;;5.10;2.03;;;6.50;60.40;;;9.40;44.23;101043.31;5053451;28;20201;-58
2023/03/27 00:49:12;;;;;;;5.07;1.73;;;6.50;60.50;;;9.47;44.25;101045.16;5053547;28;20308;-58
2023/03/27 00:51:43;;;;;;;7.30;2.70;;;6.50;60.80;;;9.57;44.40;101046.81;5036407;28;20191;-61
2023/03/27 00:54:16;;;;;;;7.77;1.80;;;6.60;61.10;;;9.65;44.59;101049.47;5048514;28;20225;-61
2023/03/27 00:56:44;;;;;;;5.20;1.70;;;6.70;61.30;;;9.72;44.22;101051.31;5053618;28;20196;-60
2023/03/27 00:59:17;;;;;;;3.30;1.43;;;6.70;61.60;;;9.78;44.17;101052.44;5053393;28;20292;-60
2023/03/27 01:01:47;;;;;;;6.17;1.43;;;6.80;61.40;;;9.79;44.22;101052.31;5053493;28;20178;-60
2023/03/27 01:04:20;;;;;;;6.40;1.97;;;6.80;61.30;;;9.80;44.54;101055.72;5053228;28;20697;-61
2023/03/27 01:06:50;;;;;;;7.43;2.10;;;6.90;61.30;;;9.80;44.29;101055.72;5051812;28;20186;-60
2023/03/27 01:09:17;;;;;;;6.13;1.90;;;6.90;61.20;;;9.79;44.46;101060.19;5052241;28;20693;-60
2023/03/27 01:12:05;;;;;;;3.53;1.40;;;7.00;61.60;;;9.77;44.57;101058.72;5053486;28;20273;-61
2023/03/27 01:14:49;;;;;;;3.73;1.53;;;6.90;61.50;;;9.76;44.82;101060.50;5043709;28;20233;-59
2023/03/27 01:17:40;;;;;;;2.00;1.20;;;7.00;61.60;;;9.73;44.57;101062.63;5052487;28;20217;-61
2023/03/27 01:20:54;;;;;;;6.83;2.20;;;7.00;61.60;;;9.71;45.30;101072.47;5052234;28;20274;-62
2023/03/27 01:24:07;;;;;;;5.50;1.60;;;7.00;61.70;;;9.68;44.70;101075.41;5014297;28;20633;-60
2023/03/27 01:27:01;;;;;;;7.07;1.70;;;7.00;61.70;;;9.65;45.17;101070.50;5052801;28;20190;-62
2023/03/27 01:30:02;;;;;;;7.00;1.67;;;6.90;62.20;;;9.65;45.24;101075.75;5052949;28;20217;-59
2023/03/27 01:33:13;;;;;;;5.23;1.47;;;6.90;62.30;;;9.68;45.13;101072.78;5043414;28;20201;-59
2023/03/27 01:36:54;;;;;;;6.07;1.77;;;6.90;62.40;;;9.71;45.32;101085.63;5056912;28;20213;-60
2023/03/27 01:39:47;;;;;;;3.77;1.20;;;7.00;62.50;;;9.73;45.00;101070.50;4954256;28;20219;-58
2023/03/27 01:42:25;;;;;;;5.47;1.73;;;6.90;62.80;;;9.75;45.17;101071.16;5056626;28;20194;-61
2023/03/27 01:45:06;;;;;;;3.57;1.20;;;7.00;61.80;;;9.75;44.97;101079.03;5042722;28;20221;-61
2023/03/27 01:47:45;;;;;;;4.33;1.47;;;7.00;61.50;;;9.75;44.74;101076.41;5036744;28;20188;-60
2023/03/27 01:50:21;;;;;;;5.83;1.50;;;7.00;61.40;;;9.74;45.43;101073.00;5036915;28;20562;-60
2023/03/27 01:52:55;;;;;;;5.17;1.87;;;7.00;62.10;;;9.76;44.96;101071.03;5050201;28;20200;-61
2023/03/27 01:55:30;;;;;;;5.50;1.60;;;7.00;61.70;;;9.75;44.75;101073.78;5042107;28;20696;-61
2023/03/27 01:58:03;;;;;;;6.73;2.03;;;7.00;61.40;;;9.73;44.78;101081.84;5036656;28;20273;-58
2023/03/27 02:00:34;;;;;;;5.10;2.10;;;7.00;61.40;;;9.70;45.03;101092.66;5035341;28;20206;-58
2023/03/27 02:03:26;;;;;;;6.10;2.10;;;6.90;61.30;;;9.65;44.80;101094.16;5042600;28;20232;-59
2023/03/27 02:05:59;;;;;;;6.40;2.30;;;6.90;61.60;;;9.62;45.13;101099.72;5056011;28;20189;-58
2023/03/27 02:08:36;;;;;;;5.00;1.70;;;6.90;61.60;;;9.55;44.77;101096.91;5056360;28;20231;-61
2023/03/27 02:11:06;;;;;;;4.07;1.67;;;6.80;61.60;;;9.50;44.94;101104.44;5053324;28;20200;-60
2023/03/27 02:13:40;;;;;;;7.10;1.90;;;6.80;61.90;;;9.45;45.20;101107.56;5046170;28;20673;-58
2023/03/27 02:16:13;;;;;;;4.43;1.77;;;6.70;62.10;;;9.38;45.11;101111.78;5036410;28;20180;-61
2023/03/27 02:18:48;;;;;;;5.80;2.50;;;6.70;62.20;;;9.33;45.22;101116.69;5037795;28;20183;-56
2023/03/27 02:21:15;;;;;;;6.73;2.27;;;6.60;62.20;;;9.28;45.54;101118.97;5056167;28;20189;-59
2023/03/27 02:23:43;;;;;;;10.37;2.37;;;6.50;62.40;;;9.24;45.80;101117.63;5054617;28;20316;-62
2023/03/27 02:26:12;;;;;;;7.47;2.07;;;6.50;63.00;;;9.21;45.64;101128.44;5050374;28;20662;-58
2023/03/27 02:29:02;;;;;;;6.50;2.17;;;6.40;63.00;;;9.13;45.72;101125.75;5036196;28;20210;-63
2023/03/27 02:31:47;;;;;;;6.07;1.80;;;6.40;63.40;;;9.10;45.73;101128.72;5036203;28;20179;-59
2023/03/27 02:34:42;;;;;;;5.20;1.77;;;6.30;63.40;;;9.05;45.84;101124.91;5035690;28;20218;-60
2023/03/27 02:37:20;;;;;;;4.97;1.70;;;6.30;63.60;;;9.04;46.21;101126.69;5054312;28;20200;-61
2023/03/27 02:40:00;;;;;;;5.53;2.57;;;6.30;63.70;;;9.03;46.38;101125.06;5049107;28;20202;-59
2023/03/27 02:42:41;;;;;;;4.33;2.23;;;6.30;64.00;;;9.04;46.49;101139.81;5035658;28;20174;-58
2023/03/27 02:45:23;;;;;;;5.40;1.87;;;6.30;64.20;;;9.02;45.96;101140.94;5041275;28;20295;-60
2023/03/27 02:47:57;;;;;;;6.67;2.00;;;6.20;63.90;;;9.00;46.47;101140.28;5055268;28;20205;-61
2023/03/27 02:50:30;;;;;;;6.37;2.13;;;6.20;64.50;;;8.97;46.40;101146.66;5055820;28;20188;-59
2023/03/27 02:53:02;;;;;;;3.03;1.70;;;6.20;64.60;;;8.97;46.81;101141.41;5055097;28;20194;-60
2023/03/27 02:55:36;;;;;;;6.33;1.63;;;6.20;64.60;;;8.94;46.73;101149.59;5055183;28;20210;-56
2023/03/27 02:58:09;;;;;;;4.93;1.80;;;6.20;64.70;;;8.92;46.69;101155.97;5055474;28;20729;-61
2023/03/27 03:00:43;;;;;;;7.17;1.77;;;6.10;65.30;;;8.89;46.88;101153.69;5055314;28;20179;-59
2023/03/27 03:03:19;;;;;;;9.73;2.53;;;6.10;65.30;;;8.87;47.49;101160.88;5054505;28;20182;-59
2023/03/27 03:05:46;;;;;;;9.10;2.10;;;6.10;66.00;;;8.84;47.24;101156.75;5055172;28;20187;-61
2023/03/27 03:08:14;;;;;;;4.97;2.00;;;6.00;65.80;;;8.83;47.18;101168.22;5034697;28;20186;-61
2023/03/27 03:10:44;;;;;;;3.40;1.70;;;6.00;65.90;;;8.80;47.33;101176.41;5035880;28;20663;-61
2023/03/27 03:13:13;;;;;;;5.50;1.80;;;6.00;65.90;;;8.78;47.83;101179.19;5035523;28;20242;-62
2023/03/27 03:15:40;;;;;;;5.20;2.03;;;6.00;66.50;;;8.75;47.55;101184.72;5034920;28;20210;-57
2023/03/27 03:18:08;;;;;;;5.83;2.23;;;5.90;66.60;;;8.73;47.78;101183.22;5035045;28;20187;-62
2023/03/27 03:20:35;;;;;;;8.33;2.63;;;5.90;66.60;;;8.70;47.85;101186.97;5041321;28;20226;-61
2023/03/27 03:23:02;;;;;;;4.27;2.20;;;5.90;67.00;;;8.68;47.82;101186.31;5034775;28;20313;-61
2023/03/27 03:25:32;;;;;;;5.87;2.20;;;5.90;66.90;;;8.65;47.94;101189.22;5034263;28;20214;-60
2023/03/27 03:27:59;;;;;;;4.00;1.50;;;5.80;67.50;;;8.67;48.34;101189.09;5034955;28;20275;-60
2023/03/27 03:30:29;;;;;;;6.30;1.87;;;5.80;67.80;;;8.65;47.84;101191.84;5034389;28;20601;-58
2023/03/27 03:32:57;;;;;;;4.60;1.37;;;5.80;67.60;;;8.63;48.20;101198.22;5036682;28;20182;-62
2023/03/27 03:35:24;;;;;;;4.50;1.80;;;5.80;67.40;;;8.60;48.44;101193.28;5054054;28;20215;-60
2023/03/27 03:37:52;;;;;;;3.37;1.57;;;5.80;67.70;;;8.59;48.45;101189.00;5048064;28;20278;-61
2023/03/27 03:40:19;;;;;;;5.10;2.10;;;5.70;68.20;;;8.60;48.48;101195.91;5040715;28;20190;-59
2023/03/27 03:42:49;;;;;;;5.87;2.00;;;5.80;67.80;;;8.60;48.18;101203.78;5048566;28;20290;-61
2023/03/27 03:45:17;;;;;;;3.53;1.60;;;5.80;67.90;;;8.59;48.32;101204.75;5053811;28;20230;-60
2023/03/27 03:47:46;;;;;;;5.87;1.90;;;5.70;67.80;;;8.59;48.45;101215.25;5053996;28;20652;-63
2023/03/27 03:50:14;;;;;;;3.10;1.47;;;5.70;67.70;;;8.59;48.55;101210.00;5054210;28;20240;-61
2023/03/27 03:52:41;;;;;;;5.87;1.70;;;5.70;67.90;;;8.60;48.56;101219.53;5054595;28;20188;-60
2023/03/27 03:55:10;;;;;;;4.47;1.87;;;5.70;68.20;;;8.64;48.74;101228.75;5040394;28;20214;-60
2023/03/27 03:57:38;;;;;;;6.30;1.73;;;5.80;68.00;;;8.68;48.72;101235.31;5049936;28;20193;-59
2023/03/27 04:00:12;;;;;;;3.27;1.50;;;5.80;68.00;;;8.73;48.61;101238.31;5049796;28;20197;-60
2023/03/27 04:02:42;;;;;;;3.80;1.37;;;5.80;68.00;;;8.81;48.83;101241.03;5034782;28;20269;-61
2023/03/27 04:05:10;;;;;;;3.20;1.20;;;5.90;68.30;;;8.90;48.65;101240.13;5032982;28;20218;-59
2023/03/27 04:07:38;;;;;;;2.80;1.50;;;6.00;67.90;;;8.95;48.23;101244.91;5034005;28;20190;-61
2023/03/27 04:10:08;;;;;;;11.77;1.90;;;6.00;67.30;;;8.94;47.70;101241.47;5032682;28;20748;-60
2023/03/27 04:12:35;;;;;;;5.87;1.57;;;6.10;66.80;;;8.90;48.30;101241.91;5037612;28;20189;-64
2023/03/27 04:15:02;;;;;;;7.87;1.40;;;6.10;67.10;;;8.88;48.10;101242.09;5049529;28;20214;-60
2023/03/27 04:17:32;;;;;;;6.23;3.00;;;6.10;66.70;;;8.87;47.96;101244.88;5054399;28;20279;-59
2023/03/27 04:19:59;;;;;;;3.90;2.50;;;6.10;66.60;;;8.86;47.72;101249.28;5041927;28;20197;-59
2023/03/27 04:22:28;;;;;;;2.67;1.53;;;6.10;66.50;;;8.84;47.72;101264.38;5033932;28;20197;-58
2023/03/27 04:24:56;;;;;;;3.90;1.33;;;6.00;66.40;;;8.85;47.95;101287.00;5033433;28;20228;-61
2023/03/27 04:27:23;;;;;;;4.40;1.60;;;6.00;67.00;;;8.89;47.79;101285.72;5035174;28;20705;-60
2023/03/27 04:29:50;;;;;;;6.07;2.13;;;6.00;66.80;;;8.94;48.61;101308.91;5033773;28;20292;-57
2023/03/27 04:32:18;;;;;;;3.40;1.77;;;6.00;68.60;;;8.96;49.22;101273.66;5033110;28;20287;-61
2023/03/27 04:34:49;;;;;;;3.73;1.30;;;6.00;70.20;;;9.02;49.20;101274.84;5052180;28;20217;-60
2023/03/27 04:37:17;;;;;;;2.47;1.63;;;6.00;70.60;;;9.02;49.25;101273.03;5053622;28;20198;-60
2023/03/27 04:39:51;;;;;;;3.67;1.60;;;6.00;70.50;;;8.97;49.10;101283.16;5053431;28;20235;-60
2023/03/27 04:42:22;;;;;;;2.70;1.93;;;6.10;69.80;;;8.91;49.12;101289.03;5053080;28;20204;-62
2023/03/27 04:44:51;;;;;;;3.83;1.73;;;6.00;69.50;;;8.83;49.57;101291.56;5052958;28;20250;-59
2023/03/27 04:47:19;;;;;;;6.33;1.90;;;6.00;69.90;;;8.75;49.27;101289.69;5053665;28;20262;-61
2023/03/27 04:49:49;;;;;;;4.93;1.83;;;6.00;69.90;;;8.69;49.62;101289.47;5053582;28;20623;-63
2023/03/27 04:52:17;;;;;;;3.33;1.73;;;5.90;70.40;;;8.62;49.63;101286.63;5046766;28;20586;-62
2023/03/27 04:54:45;;;;;;;4.97;1.80;;;5.90;70.50;;;8.55;49.75;101293.44;5033506;28;20227;-59
2023/03/27 04:57:17;;;;;;;4.47;1.60;;;5.80;71.00;;;8.50;49.96;101294.84;5033887;28;20614;-59
2023/03/27 04:59:44;;;;;;;6.67;2.10;;;5.70;71.40;;;8.45;50.54;101291.81;5033393;28;20196;-63
2023/03/27 05:02:11;;;;;;;5.00;2.00;;;5.70;71.70;;;8.41;50.35;101306.22;5034110;28;20196;-65
2023/03/27 05:04:38;;;;;;;4.17;1.60;;;5.60;71.00;;;8.39;50.59;101297.66;5033252;28;20238;-59
2023/03/27 05:07:09;;;;;;;5.57;2.00;;;5.60;71.10;;;8.37;50.60;101286.50;5035045;28;20223;-63
2023/03/27 05:09:35;;;;;;;7.83;2.07;;;5.60;71.00;;;8.35;50.19;101291.88;5057096;28;20230;-61
2023/03/27 05:12:03;;;;;;;4.53;1.90;;;5.60;70.60;;;8.32;50.01;101291.38;5046250;28;20203;-59
2023/03/27 05:14:31;;;;;;;2.40;1.47;;;5.50;70.10;;;8.27;50.13;101293.59;5055775;28;20222;-60
2023/03/27 05:16:59;;;;;;;6.97;1.60;;;5.50;70.10;;;8.25;50.01;101306.78;5057162;28;20245;-58
2023/03/27 05:19:26;;;;;;;4.43;1.43;;;5.40;70.20;;;8.22;49.89;101301.03;5050032;28;20704;-60
2023/03/27 05:21:53;;;;;;;5.00;1.93;;;5.40;70.30;;;8.20;50.76;101314.31;5037431;28;20737;-62
2023/03/27 05:24:20;;;;;;;5.87;1.77;;;5.40;71.30;;;8.23;50.46;101318.41;5036606;28;20224;-59
2023/03/27 05:26:47;;;;;;;3.53;1.80;;;5.40;71.10;;;8.22;50.36;101317.59;5019131;28;20211;-61
2023/03/27 05:29:15;;;;;;;3.57;1.60;;;5.40;70.70;;;8.22;50.42;101317.59;5036889;28;20578;-61
2023/03/27 05:31:44;;;;;;;5.07;1.97;;;5.40;70.60;;;8.22;50.03;101316.75;5044950;28;20199;-62
2023/03/27 05:34:11;;;;;;;4.73;1.53;;;5.40;70.40;;;8.18;50.05;101319.66;5047120;28;20625;-61
2023/03/27 05:36:38;;;;;;;7.37;1.73;;;5.40;70.40;;;8.16;50.15;101323.41;5042671;28;20260;-60
2023/03/27 05:39:05;;;;;;;4.73;2.30;;;5.30;71.10;;;8.15;50.78;101322.56;5046599;28;20203;-60
2023/03/27 05:41:34;;;;;;;5.13;1.97;;;5.30;71.30;;;8.16;50.59;101324.25;5057683;28;20198;-62
2023/03/27 05:44:01;;;;;;;5.67;2.07;;;5.30;70.90;;;8.18;50.81;101327.53;5056862;28;20567;-61
2023/03/27 05:46:28;;;;;;;6.13;2.10;;;5.30;71.10;;;8.22;50.62;101322.00;5057967;28;20187;-61
2023/03/27 05:48:58;;;;;;;7.80;2.47;;;5.30;71.20;;;8.22;50.37;101327.25;5035262;28;20210;-61
2023/03/27 05:51:26;;;;;;;4.50;2.20;;;5.30;71.00;;;8.20;50.17;101337.91;5044525;28;20205;-62
2023/03/27 05:53:53;;;;;;;4.20;1.60;;;5.30;71.00;;;8.18;50.48;101340.66;5054292;28;20225;-63
2023/03/27 05:56:20;;;;;;;4.63;1.93;;;5.30;71.20;;;8.18;50.07;101343.25;5057985;28;20201;-60
2023/03/27 05:58:47;;;;;;;5.20;1.90;;;5.30;71.10;;;8.19;50.61;101344.94;5058531;28;20207;-61
2023/03/27 06:01:14;;;;;;;5.10;2.60;;;5.30;71.50;;;8.21;51.10;101344.78;5052842;28;20208;-60
2023/03/27 06:03:41;;;;;;;8.63;2.53;;;5.30;72.30;;;8.29;51.03;101349.34;5049005;28;20220;-60
2023/03/27 06:06:11;;;;;;;8.33;2.80;;;5.40;72.00;;;8.33;50.56;101358.56;5056028;28;20263;-60
2023/03/27 06:08:38;;;;;;;5.17;2.30;;;5.40;71.50;;;8.36;50.67;101353.03;5047662;28;20207;-62
2023/03/27 06:11:10;;;;;;;5.93;1.80;;;5.50;71.60;;;8.38;50.35;101364.19;5039527;28;20582;-62
2023/03/27 06:13:37;;;;;;;5.23;2.00;;;5.50;71.40;;;8.40;50.13;101367.50;5048482;28;20198;-60
2023/03/27 06:16:06;;;;;;;7.70;2.27;;;5.50;71.10;;;8.41;50.13;101363.91;5040929;28;20675;-61
2023/03/27 06:18:33;;;;;;;7.00;2.13;;;5.50;71.10;;;8.43;50.37;101377.72;5037108;28;20208;-62
2023/03/27 06:21:00;;;;;;;4.97;2.20;;;5.50;71.40;;;8.47;50.51;101384.31;5035919;28;20202;-62
2023/03/27 06:23:28;;;;;;;8.47;2.27;;;5.50;71.80;;;8.51;50.35;101390.94;5036231;28;20566;-60
2023/03/27 06:25:55;;;;;;;5.03;2.17;;;5.60;71.50;;;8.55;50.34;101397.53;5036690;28;20205;-60
2023/03/27 06:28:23;;;;;;;5.93;2.13;;;5.60;71.70;;;8.61;50.43;101396.94;5040750;28;20204;-61
2023/03/27 06:30:50;;;;;;;6.40;2.00;;;5.60;71.90;;;8.71;51.10;101397.72;5035072;28;20599;-62
2023/03/27 06:33:18;;;;;;;8.83;2.13;;;5.70;73.20;;;8.88;50.86;101396.94;5043333;28;20287;-60
2023/03/27 06:35:45;;;;;;;10.47;2.27;;;5.80;72.60;;;8.98;50.71;101392.47;5057037;28;20186;-63
2023/03/27 06:38:19;;;;;;;5.60;2.43;;;5.90;72.30;;;9.08;50.44;101395.84;5053947;28;20197;-61
2023/03/27 06:40:48;;;;;;;7.70;2.80;;;6.00;71.90;;;9.14;50.01;101400.50;5055924;28;20523;-62
2023/03/27 06:43:17;;;;;;;4.70;2.50;;;6.10;71.40;;;9.20;50.26;101406.97;5054551;28;20194;-61
2023/03/27 06:45:48;;;;;;;6.83;3.17;;;6.20;71.60;;;9.27;50.15;101416.72;5055835;28;20279;-62
2023/03/27 06:48:16;;;;;;;3.50;2.13;;;6.30;71.70;;;9.40;50.18;101426.84;5054794;28;20240;-61
2023/03/27 06:50:50;;;;;;;5.77;2.57;;;6.40;71.80;;;9.53;49.62;101436.00;5055638;28;20262;-61
2023/03/27 06:53:19;;;;;;;7.93;2.70;;;6.50;71.00;;;9.64;49.61;101439.38;5054676;28;20213;-60
2023/03/27 06:55:56;;;;;;;3.80;2.50;;;6.50;71.00;;;9.70;49.50;101455.38;5044360;28;20190;-62
2023/03/27 06:58:24;;;;;;;6.50;2.60;;;6.60;70.70;;;9.73;49.82;101462.13;5040616;28;20215;-61
2023/03/27 07:00:51;;;;;;;8.47;2.50;;;6.60;71.20;;;9.73;49.59;101467.38;5056470;28;20190;-60
2023/03/27 07:03:21;;;;;;;2.87;1.70;;;6.60;71.60;;;9.71;50.08;101457.03;5055295;28;20204;-59
2023/03/27 07:05:49;;;;;;;3.60;1.77;;;6.70;72.80;;;9.69;50.29;101427.47;5055698;28;20193;-61
2023/03/27 07:08:17;;;;;;;3.07;1.30;;;6.70;72.50;;;9.69;50.58;101424.00;5052352;28;20190;-61
2023/03/27 07:10:51;;;;;;;3.33;1.10;;;6.70;72.80;;;9.64;50.17;101421.00;5035327;28;20221;-61
2023/03/27 07:13:39;;;;;;;3.23;1.60;;;6.60;72.70;;;9.55;50.80;101420.91;5050388;28;20189;-60
2023/03/27 07:16:08;;;;;;;2.80;2.07;;;6.60;73.00;;;9.53;51.50;101424.69;5053004;28;20221;-60
2023/03/27 07:18:35;;;;;;;2.93;1.40;;;6.60;73.80;;;9.55;51.45;101431.41;5053831;28;20190;-60
2023/03/27 07:21:02;;;;;;;2.67;1.53;;;6.60;73.70;;;9.87;51.72;101435.31;5053962;28;20194;-59
2023/03/27 07:23:29;;;;;;;4.93;1.70;;;6.70;74.40;;;10.55;51.94;101436.28;5036151;28;20195;-58
2023/03/27 07:25:57;;;;;;;3.27;1.67;;;6.90;75.10;;;11.43;50.38;101438.38;5034432;28;20209;-57
2023/03/27 07:28:25;;;;;;;3.93;1.07;;;7.30;75.10;;;12.32;49.32;101454.19;5036576;28;20186;-61
2023/03/27 07:30:55;;;;;;;2.57;1.67;;;7.80;74.20;;;13.12;47.56;101445.19;5054160;28;20213;-62
2023/03/27 07:33:25;;;;;;;2.63;1.40;;;8.50;72.80;;;13.84;45.69;101446.50;5043838;28;20189;-61
2023/03/27 07:35:53;;;;;;;5.13;2.10;;;9.10;70.60;;;14.49;43.87;101452.88;5046402;28;20190;-61
2023/03/27 07:38:21;;;;;;;4.53;1.70;;;9.70;68.00;;;14.84;42.35;101446.81;5040671;28;20631;-61
2023/03/27 07:40:49;;;;;;;5.30;2.47;;;10.20;64.70;;;14.89;41.68;101439.13;5057700;28;20189;-62
2023/03/27 07:43:16;;;;;;;1.87;1.67;;;10.60;62.40;;;14.75;41.76;101447.94;5032535;28;20198;-60
2023/03/27 07:45:43;;;;;;;4.10;2.60;;;10.80;61.10;;;14.54;41.66;101450.50;5045374;28;20290;-61
2023/03/27 07:48:17;;;;;;;4.47;1.60;;;10.80;60.30;;;15.03;41.94;101457.84;5053894;28;20622;-59
2023/03/27 07:50:45;;;;;;;4.30;2.07;;;10.90;60.80;;;15.52;40.18;101461.50;5053239;28;20290;-60
2023/03/27 07:53:12;;;;;;;2.73;1.40;;;11.20;59.50;;;15.34;39.28;101453.09;5034772;28;20194;-61
2023/03/27 07:55:59;;;;;;;5.13;2.17;;;11.30;57.60;;;14.80;39.60;101450.84;5033873;28;20235;-59
2023/03/27 07:58:27;;;;;;;3.20;1.90;;;11.20;57.50;;;14.34;39.81;101446.72;5035920;28;20202;-60
2023/03/27 08:01:00;;;;;;;4.60;1.73;;;11.00;57.10;;;14.19;40.56;101456.47;5053888;28;20255;-61
2023/03/27 08:03:30;;;;;;;3.60;1.90;;;10.80;57.10;;;14.48;40.55;101456.50;5053351;28;20190;-57
2023/03/27 08:05:59;;;;;;;4.53;1.40;;;10.80;58.10;;;15.32;40.00;101457.78;5052668;28;20194;-57
2023/03/27 08:08:27;;;;;;;2.17;1.27;;;11.00;58.30;;;16.41;38.76;101454.66;5052120;28;20504;-62
2023/03/27 08:10:55;;;;;;;3.03;1.43;;;11.40;58.20;;;17.44;36.61;101450.88;5033902;28;20700;-59
2023/03/27 08:13:23;;;;;;;3.67;1.27;;;12.00;57.10;;;18.39;35.97;101450.50;5050250;28;20202;-61
2023/03/27 08:15:50;;;;;;;2.43;1.33;;;12.70;56.40;;;19.28;33.98;101461.28;5053389;28;20549;-61
2023/03/27 08:18:17;;;;;;;3.70;1.30;;;13.40;54.50;;;19.91;32.37;101460.28;5051150;28;20192;-60
2023/03/27 08:20:47;;;;;;;3.63;1.50;;;14.00;52.60;;;20.35;30.32;101453.13;5042788;28;20518;-62
2023/03/27 08:23:14;;;;;;;2.93;1.33;;;14.50;48.70;;;19.90;30.39;101455.13;5053575;28;20192;-61
2023/03/27 08:25:41;;;;;;;5.23;1.50;;;14.80;46.70;;;19.22;30.70;101460.28;5053399;28;20592;-61
2023/03/27 08:28:08;;;;;;;2.87;1.40;;;14.80;46.00;;;19.19;31.43;101455.34;5054022;28;20266;-61
2023/03/27 08:30:35;;;;;;;2.40;1.40;;;14.70;46.40;;;19.70;31.25;101459.81;5053421;28;20213;-57
2023/03/27 08:33:02;;;;;;;2.27;1.13;;;14.80;47.00;;;20.30;29.53;101466.34;5053671;28;20189;-59
2023/03/27 08:35:29;;;;;;;3.33;1.33;;;14.90;44.20;;;20.81;29.63;101464.13;5053210;28;20618;-60
2023/03/27 08:37:58;;;;;;;6.83;1.50;;;15.30;45.10;;;21.41;27.70;101463.19;5051660;28;20201;-59
2023/03/27 08:40:30;;;;;;;2.03;1.13;;;15.60;43.10;;;22.03;27.42;101469.88;5034539;28;20186;-60
2023/03/27 08:43:08;;;;;;;2.97;1.40;;;16.00;42.80;;;22.67;26.44;101476.19;5038706;28;20677;-61
2023/03/27 08:45:45;;;;;;;4.57;1.47;;;16.50;42.00;;;23.02;25.37;101484.97;5046722;28;20214;-59
2023/03/27 08:48:20;;;;;;;2.93;1.37;;;16.90;40.00;;;22.37;25.23;101489.69;5057736;28;20694;-60
2023/03/27 08:50:53;;;;;;;2.50;1.50;;;16.90;38.20;;;21.29;26.59;101505.19;5057706;28;20193;-61
2023/03/27 08:53:35;;;;;;;4.03;2.73;;;16.80;38.00;;;20.11;27.96;101511.69;5055172;28;20196;-59
2023/03/27 08:56:03;;;;;;;3.83;1.70;;;16.30;38.60;;;19.08;29.25;101524.59;5044374;28;20210;-59
2023/03/27 08:58:32;;;;;;;2.93;1.90;;;15.60;40.10;;;18.05;31.10;101543.97;5056178;28;20387;-60
2023/03/27 09:01:10;;;;;;;1.90;1.03;;;14.80;42.40;;;16.99;33.64;101549.13;5057285;28;20204;-60
2023/03/27 09:03:46;;;;;;;3.00;1.33;;;14.00;45.90;;;15.94;35.14;101551.75;5056838;28;20198;-62
2023/03/27 09:06:25;;;;;;;2.97;1.10;;;13.20;48.10;;;15.09;36.78;101544.63;5057233;28;20205;-61
2023/03/27 09:09:09;;;;;;;2.77;1.20;;;12.50;50.10;;;14.43;38.11;101559.53;5057692;28;20182;-61
2023/03/27 09:11:56;;;;;;;3.87;1.30;;;11.80;52.20;;;13.86;39.55;101535.28;5057476;28;20201;-62
2023/03/27 09:14:32;;;;;;;2.43;1.60;;;11.20;54.20;;;13.38;39.57;101541.69;5056656;28;20218;-58
2023/03/27 09:17:10;;;;;;;4.53;1.53;;;10.60;54.00;;;13.01;40.27;101544.16;5058128;28;20178;-60
2023/03/27 09:19:48;;;;;;;2.50;1.30;;;10.20;55.60;;;12.73;40.84;101542.91;5054131;28;20328;-62
2023/03/27 09:22:22;;;;;;;5.03;2.40;;;9.90;57.60;;;12.60;41.87;101534.69;5037659;28;20530;-62
2023/03/27 09:24:55;;;;;;;5.77;1.70;;;9.60;58.80;;;12.64;42.07;101543.91;5044660;28;20451;-60
2023/03/27 09:27:28;;;;;;;8.77;2.83;;;9.50;59.80;;;12.91;42.30;101548.78;5061540;28;20196;-61
2023/03/27 09:30:17;;;;;;;6.93;2.93;;;9.50;61.30;;;13.46;41.81;101538.19;5039596;28;20213;-62
2023/03/27 09:32:48;;;;;;;7.33;3.43;;;9.60;61.30;;;13.77;41.36;101548.75;5037418;28;20171;-60
2023/03/27 09:35:19;;;;;;;9.77;3.70;;;9.80;61.70;;;13.82;40.89;101551.72;5036172;28;20249;-60
2023/03/27 09:37:49;;;;;;;6.30;3.03;;;9.90;60.40;;;14.40;40.86;101554.63;5036815;28;20182;-59
2023/03/27 09:40:29;;;;;;;4.37;2.13;;;10.20;60.00;;;15.57;38.87;101555.44;5040242;28;20190;-57
2023/03/27 09:43:07;;;;;;;4.27;1.47;;;10.50;58.90;;;17.14;36.55;101555.94;5056508;28;20205;-61
2023/03/27 09:45:38;;;;;;;4.37;2.50;;;11.20;57.90;;;18.65;35.03;101557.13;5055723;28;20233;-61
2023/03/27 09:48:13;;;;;;;3.13;1.43;;;12.00;57.90;;;20.16;32.80;101551.13;5055898;28;20276;-58
2023/03/27 09:50:45;;;;;;;4.17;1.60;;;12.90;56.00;;;21.49;30.84;101556.63;5054930;28;20581;-59
2023/03/27 09:53:15;;;;;;;2.70;1.90;;;13.90;54.70;;;22.69;29.55;101554.59;5055656;28;20198;-60
2023/03/27 09:55:52;;;;;;;1.97;1.40;;;14.90;52.30;;;23.66;27.86;101548.31;5056853;28;20264;-57
2023/03/27 09:58:35;;;;;;;2.40;1.43;;;15.80;49.30;;;24.48;26.84;101549.50;5042170;28;20194;-61
2023/03/27 10:01:14;;;;;;;2.43;1.67;;;16.70;47.50;;;25.16;25.73;101546.41;5055869;28;20230;-60
2023/03/27 10:03:47;;;;;;;1.67;1.23;;;17.50;44.50;;;25.74;24.51;101547.63;5056076;28;20236;-61
2023/03/27 10:06:25;;;;;;;2.67;1.47;;;18.20;42.80;;;26.33;23.93;101551.94;5053768;28;20212;-62
2023/03/27 10:08:54;;;;;;;4.33;1.47;;;18.90;41.10;;;26.63;22.73;101538.66;5053810;28;20238;-61
2023/03/27 10:11:30;;;;;;;3.57;1.13;;;19.30;38.20;;;26.83;22.06;101546.09;5049246;28;20231;-61
2023/03/27 10:14:00;;;;;;;3.97;1.27;;;19.60;36.90;;;27.10;22.00;101546.75;5051219;28;20241;-60
2023/03/27 10:16:28;;;;;;;3.07;1.17;;;19.90;36.10;;;27.64;21.47;101543.69;5055309;28;20291;-60
2023/03/27 10:18:59;;;;;;;5.10;1.73;;;20.20;36.40;;;28.27;21.20;101558.66;5048318;28;20199;-63
2023/03/27 10:21:30;;;;;;;3.63;1.80;;;20.70;35.70;;;28.53;20.02;101546.69;5034956;28;20187;-61
2023/03/27 10:24:03;;;;;;;4.03;1.47;;;20.90;33.70;;;28.61;20.11;101541.59;5035561;28;20608;-60
2023/03/27 10:26:36;;;;;;;4.33;1.60;;;21.10;33.30;;;28.83;19.79;101535.84;5036797;28;20179;-59
2023/03/27 10:29:20;;;;;;;5.37;1.70;;;21.30;32.40;;;28.67;19.17;101545.06;5049486;28;20718;-61
2023/03/27 10:31:50;;;;;;;6.20;1.97;;;21.50;31.30;;;27.81;19.95;101536.97;5055791;28;20674;-61
2023/03/27 10:34:36;;;;;;;4.50;1.53;;;21.30;31.20;;;27.15;21.30;101543.25;5066752;28;20226;-62
2023/03/27 10:37:20;;;;;;;4.13;1.60;;;21.10;32.30;;;25.95;21.62;101544.88;5035514;28;20186;-62
2023/03/27 10:39:47;;;;;;;2.87;1.60;;;20.70;31.70;;;24.77;23.20;101542.13;5050761;28;20209;-61
2023/03/27 10:42:17;;;;;;;6.50;1.60;;;20.10;32.80;;;23.55;23.77;101544.66;5035476;28;20198;-61
2023/03/27 10:44:47;;;;;;;4.30;2.40;;;19.50;33.20;;;22.42;25.13;101556.91;5039015;28;20214;-59